Flight Track Log - Related Links

Times and Time Zones

All times are in EDT time to prevent confusion due to time zone crossing. See the SWA1718 flight status page for this flight to view local times or setup timezone preferences in your user account.

Time Position Orientation Groundspeed Altitude Reporting Facility
EDT Latitude Longitude Course Direction KTS MPH feet Rate Location/Type
Tue 05:19:00 PM 35.3775 -101.7528 350° North 251 289 10,200  Level Albuquerque Center
Tue 05:20:02 PM 35.4664 -101.7619 355° North 310 357 11,900 2,129 Climbing Albuquerque Center
Tue 05:21:04 PM 35.5558 -101.8056 338° Northwest 343 395 14,600 2,758 Climbing Albuquerque Center
Tue 05:22:00 PM 35.7066 -101.9242 341° North  Level FlightAware Approximate
Tue 05:22:06 PM 35.6658 -101.8575 339° North 351 404 17,600  Level Albuquerque Center
Tue 05:23:00 PM 35.8061 -101.9658 342° North  Level FlightAware Approximate
Tue 05:23:08 PM 35.7603 -101.9047 338° Northwest 361 415 19,500  Level Albuquerque Center
Tue 05:24:09 PM 35.8597 -101.9517 339° North 377 434 21,300 1,805 Climbing Albuquerque Center
Tue 05:25:11 PM 35.9617 -102.0031 338° Northwest 392 451 23,200 1,694 Climbing Albuquerque Center
Tue 05:26:13 PM 36.0658 -102.0525 339° North 399 459 24,800 1,500 Climbing Albuquerque Center
Tue 05:27:15 PM 36.1731 -102.1036 339° North 408 470 26,300 1,500 Climbing Albuquerque Center
Tue 05:28:17 PM 36.3033 -102.1694 338° Northwest 420 483 27,900 1,306 Climbing Albuquerque Center
Tue 05:29:19 PM 36.4142 -102.2225 339° North 426 490 29,000 1,065 Climbing Albuquerque Center
Tue 05:30:21 PM 36.5267 -102.2786 338° Northwest 433 498 30,100 532 Climbing Albuquerque Center
Tue 05:31:23 PM 36.6392 -102.3342 338° Northwest 435 501 30,100 -48 Level Albuquerque Center
Tue 05:32:25 PM 36.7511 -102.3914 338° Northwest 435 501 30,000 -48 Descending Albuquerque Center
Tue 05:33:27 PM 36.8628 -102.4483 338° Northwest 434 499 30,000  Level Albuquerque Center
Tue 05:34:29 PM 36.9908 -102.5108 339° North 440 506 30,000  Level Albuquerque Center
Tue 05:35:31 PM 37.1119 -102.5733 338° Northwest 436 502 30,000  Level Albuquerque Center
Tue 05:36:33 PM 37.2206 -102.6281 338° Northwest 437 503 30,000  Level Albuquerque Center
Tue 05:37:35 PM 37.3453 -102.6917 338° Northwest 436 502 30,000  Level Albuquerque Center
Tue 05:37:59 PM 37.3789 -102.7089 338° Northwest 430 495 30,000  Level Denver Center
Tue 05:39:01 PM 37.4981 -102.7694 338° Northwest 414 476 30,000  Level Denver Center
Tue 05:40:03 PM 37.6036 -102.8100 343° North 413 475 30,000  Level Denver Center
Tue 05:41:05 PM 37.7053 -102.8858 329° Northwest 380 437 30,000  Level Denver Center
Tue 05:42:07 PM 37.7881 -102.9517 328° Northwest 370 426 30,000  Level Denver Center
Tue 05:43:08 PM 37.8800 -103.0225 329° Northwest 350 403 30,000  Level Denver Center
Tue 05:44:10 PM 37.9547 -103.0817 328° Northwest 334 384 30,000  Level Denver Center
Tue 05:45:12 PM 38.0283 -103.1392 328° Northwest 326 375 30,000 -97 Level Denver Center
Tue 05:46:14 PM 38.1144 -103.2069 328° Northwest 328 377 29,800 -532 Descending Denver Center
Tue 05:47:16 PM 38.1908 -103.2672 328° Northwest 336 387 28,900 -968 Descending Denver Center
Tue 05:48:18 PM 38.2789 -103.3367 328° Northwest 335 386 27,800 -919 Descending Denver Center
Tue 05:49:20 PM 38.3603 -103.4014 328° Northwest 335 386 27,000 -387 Descending Denver Center
Tue 05:50:22 PM 38.4431 -103.4453 337° Northwest 345 397 27,000  Level Denver Center
Tue 05:51:24 PM 38.5386 -103.4806 344° North 344 396 27,000  Level Denver Center
Tue 05:52:26 PM 38.6378 -103.5183 343° North 335 386 27,000  Level Denver Center
Tue 05:53:28 PM 38.7328 -103.5289 355° North 361 415 27,000 -435 Level Denver Center
Tue 05:54:30 PM 38.8478 -103.5297 360° North 372 428 26,100 -919 Descending Denver Center
Tue 05:55:32 PM 38.9417 -103.5650 344° North 351 404 25,100 -968 Descending Denver Center
Tue 05:56:34 PM 38.9700 -103.6583 291° West 284 327 24,100 -968 Descending Denver Center
Tue 05:57:36 PM 38.9794 -103.7536 277° West 271 312 23,100 -532 Descending Denver Center
Tue 05:58:38 PM 39.0417 -103.8275 317° Northwest 300 345 23,000 -435 Descending Denver Center
Tue 05:59:40 PM 39.1019 -103.9094 313° West 314 361 22,200 -968 Descending Denver Center
Tue 06:00:42 PM 39.1744 -104.0072 314° West 322 371 21,000 -1,355 Descending Denver Center
Tue 06:01:44 PM 39.2303 -104.0844 313° West 299 344 19,400 -1,500 Descending Denver Center
Tue 06:02:46 PM 39.2700 -104.1711 301° West 281 323 17,900 -1,161 Descending Denver Center
Tue 06:03:48 PM 39.2900 -104.2558 287° West 254 292 17,000 -968 Descending Denver Center
Tue 06:04:50 PM 39.3089 -104.3375 287° West 224 258 15,900 -1,200 Descending Denver Center
Tue 06:05:53 PM 39.3258 -104.4108 287° West 215 247 14,500 -1,152 Descending Denver Center
Tue 06:06:55 PM 39.3444 -104.4975 286° West 229 264 13,500 -1,161 Descending Denver Center
Tue 06:07:57 PM 39.3619 -104.5742 286° West 224 258 12,100 -871 Descending Denver Center
Tue 06:08:59 PM 39.4044 -104.6225 319° Northwest 191 220 11,700 -1,065 Descending Denver Center
Tue 06:10:01 PM 39.4503 -104.6472 337° Northwest 181 208 9,900 -1,306 Descending Denver Center
Tue 06:11:03 PM 39.5078 -104.6642 347° North 195 224 9,000 -435 Descending Denver Center
Tue 06:12:05 PM 39.5611 -104.6681 357° North 191 220 9,000  Level Denver Center
Tue 06:13:07 PM 39.6128 -104.6647 North 187 215 9,000 -145 Level Denver Center
Tue 06:14:09 PM 39.6667 -104.6633 North 181 208 8,700 -532 Descending Denver Center
Tue 06:15:11 PM 39.7156 -104.6611 North 178 205 7,900 -968 Descending Denver Center
Tue 06:16:13 PM 39.7706 -104.6617 360° North 185 213 6,700 -1,016 Descending Denver Center
Tue 06:17:15 PM 39.8133 -104.6608 North 152 175 5,800 -629 Descending Denver Center
Tue 06:18:17 PM 39.8478 -104.6617 359° North 131 151 5,400 -387 Descending Denver Center
Tue 06:20:00 PM 39.8500 -104.6667 North  Level FlightAware Approximate
Tue 06:27:00 PM 39.8617 -104.6732 North  Level Estimated

Login

Don't have an account? Register now (free) for customized features, flight alerts, and more!